Time;durP1;ratioP1;P1;durP2;ratioP2;P2;SDS_P1;SDS_P2;PMS_P1;PMS_P2;Temp;Humidity;BMP_temperature;BMP_pressure;BME280_temperature;BME280_humidity;BME280_pressure;Samples;Min_cycle;Max_cycle;Signal;HPM_P1;HPM_P2
2023/06/20 00:04:04;;;;;;;21.25;16.17;;;;;;;;;;13171176;22;20354;-83
2023/06/20 00:09:08;;;;;;;19.30;16.90;;;;;;;;;;13170146;22;20824;-83
2023/06/20 00:14:12;;;;;;;22.42;17.45;;;;;;;;;;13171133;22;20896;-83
2023/06/20 00:19:14;;;;;;;23.70;18.83;;;;;;;;;;13168790;22;20828;-83
2023/06/20 00:24:18;;;;;;;22.20;18.57;;;;;;;;;;13171097;22;20760;-82
2023/06/20 00:29:20;;;;;;;22.10;18.05;;;;;;;;;;13171522;22;20362;-83
2023/06/20 00:34:22;;;;;;;23.52;19.02;;;;;;;;;;13169971;22;20377;-82
2023/06/20 00:39:26;;;;;;;27.15;19.73;;;;;;;;;;13170937;22;20841;-82
2023/06/20 00:44:28;;;;;;;26.00;20.73;;;;;;;;;;13168986;22;20427;-82
2023/06/20 00:49:31;;;;;;;26.03;21.03;;;;;;;;;;13172953;22;20392;-82
2023/06/20 00:54:35;;;;;;;25.20;19.55;;;;;;;;;;13169211;22;20374;-82
2023/06/20 00:59:37;;;;;;;23.48;18.70;;;;;;;;;;13171654;22;20406;-82
2023/06/20 01:04:41;;;;;;;21.10;17.52;;;;;;;;;;13171170;22;20488;-82
2023/06/20 01:09:52;;;;;;;21.27;17.38;;;;;;;;;;13174824;22;20357;-83
2023/06/20 01:15:03;;;;;;;23.10;18.58;;;;;;;;;;13175757;22;20377;-83
2023/06/20 01:20:09;;;;;;;20.45;17.33;;;;;;;;;;13174128;22;20349;-83
2023/06/20 01:25:23;;;;;;;21.43;17.40;;;;;;;;;;13175203;22;20415;-84
2023/06/20 01:30:32;;;;;;;20.48;17.25;;;;;;;;;;13173990;22;20395;-83
2023/06/20 01:35:36;;;;;;;20.57;17.37;;;;;;;;;;13175585;22;20377;-83
2023/06/20 01:40:42;;;;;;;22.07;18.57;;;;;;;;;;13174815;22;20402;-84
2023/06/20 01:45:45;;;;;;;23.30;19.77;;;;;;;;;;13174506;22;20358;-83
2023/06/20 01:50:49;;;;;;;25.58;19.95;;;;;;;;;;13174442;22;20690;-83
2023/06/20 01:55:53;;;;;;;22.90;19.60;;;;;;;;;;13174015;22;20857;-83
2023/06/20 02:00:57;;;;;;;25.47;19.70;;;;;;;;;;13175671;22;20395;-84
2023/06/20 02:06:01;;;;;;;21.95;18.70;;;;;;;;;;13174574;22;20393;-83
2023/06/20 02:11:05;;;;;;;23.30;18.17;;;;;;;;;;13170719;22;20369;-83
2023/06/20 02:16:10;;;;;;;19.83;17.15;;;;;;;;;;13172037;22;20373;-83
2023/06/20 02:21:19;;;;;;;21.17;16.67;;;;;;;;;;13173732;22;20357;-83
2023/06/20 02:26:29;;;;;;;18.77;16.33;;;;;;;;;;13172232;22;20641;-83
2023/06/20 02:31:34;;;;;;;20.53;17.00;;;;;;;;;;13174553;22;20365;-84
2023/06/20 02:36:38;;;;;;;20.07;17.00;;;;;;;;;;13173114;22;20403;-83
2023/06/20 02:41:43;;;;;;;21.77;17.83;;;;;;;;;;13173399;22;20865;-83
2023/06/20 02:46:55;;;;;;;19.67;16.63;;;;;;;;;;13173254;22;20426;-84
2023/06/20 02:52:06;;;;;;;21.13;17.70;;;;;;;;;;13173253;22;20837;-83
2023/06/20 02:57:12;;;;;;;20.35;17.00;;;;;;;;;;13172065;22;20379;-84
2023/06/20 03:02:19;;;;;;;22.00;18.00;;;;;;;;;;13172611;22;20357;-84
2023/06/20 03:07:21;;;;;;;22.37;17.83;;;;;;;;;;13173540;22;20898;-83
2023/06/20 03:12:25;;;;;;;23.58;18.80;;;;;;;;;;13173129;22;20694;-83
2023/06/20 03:17:28;;;;;;;23.67;18.50;;;;;;;;;;13173264;22;20377;-83
2023/06/20 03:22:30;;;;;;;23.55;18.83;;;;;;;;;;13172696;22;20354;-81
2023/06/20 03:27:34;;;;;;;25.45;19.33;;;;;;;;;;13172926;22;20430;-83
2023/06/20 03:32:36;;;;;;;24.85;19.63;;;;;;;;;;13174302;22;20361;-83
2023/06/20 03:37:38;;;;;;;23.37;19.87;;;;;;;;;;13173049;22;20893;-83
2023/06/20 03:42:42;;;;;;;25.73;20.73;;;;;;;;;;13172747;22;20395;-83
2023/06/20 03:47:47;;;;;;;26.10;20.45;;;;;;;;;;13172534;22;20488;-83
2023/06/20 03:52:49;;;;;;;30.20;21.77;;;;;;;;;;13172267;22;20387;-83
2023/06/20 03:57:53;;;;;;;29.80;23.63;;;;;;;;;;13173053;22;20489;-82
2023/06/20 04:02:55;;;;;;;32.60;23.33;;;;;;;;;;13173349;22;20394;-83
2023/06/20 04:08:00;;;;;;;29.67;23.33;;;;;;;;;;13172263;22;20362;-84
2023/06/20 04:13:04;;;;;;;32.23;23.10;;;;;;;;;;13172520;22;20357;-81
2023/06/20 04:18:06;;;;;;;34.63;24.00;;;;;;;;;;13171483;22;20430;-83
2023/06/20 04:23:09;;;;;;;31.92;23.67;;;;;;;;;;13171303;22;20735;-83
2023/06/20 04:28:17;;;;;;;34.70;24.70;;;;;;;;;;13171981;22;20926;-83
2023/06/20 04:33:20;;;;;;;32.03;23.67;;;;;;;;;;13172196;22;20403;-83
2023/06/20 04:38:22;;;;;;;34.47;25.08;;;;;;;;;;13169420;22;20358;-83
2023/06/20 04:43:26;;;;;;;34.40;24.43;;;;;;;;;;13170905;22;20357;-83
2023/06/20 04:48:28;;;;;;;32.97;24.75;;;;;;;;;;13170803;22;20419;-83
2023/06/20 04:53:31;;;;;;;35.90;25.00;;;;;;;;;;13170231;22;20403;-83
2023/06/20 04:58:34;;;;;;;36.20;24.77;;;;;;;;;;13170234;22;20426;-83
2023/06/20 05:03:36;;;;;;;38.63;26.33;;;;;;;;;;13170217;22;20358;-83
2023/06/20 05:08:39;;;;;;;42.70;27.95;;;;;;;;;;13169992;22;20663;-83
2023/06/20 05:13:42;;;;;;;42.58;27.65;;;;;;;;;;13169916;22;20381;-83
2023/06/20 05:18:46;;;;;;;44.60;27.17;;;;;;;;;;13169339;22;20436;-82
2023/06/20 05:23:48;;;;;;;46.15;28.40;;;;;;;;;;13171065;22;20825;-83
2023/06/20 05:28:52;;;;;;;43.67;29.35;;;;;;;;;;13170648;22;20419;-83
2023/06/20 05:33:54;;;;;;;43.60;27.77;;;;;;;;;;13169831;22;20434;-83
2023/06/20 05:38:58;;;;;;;43.22;27.73;;;;;;;;;;13169825;22;20361;-83
2023/06/20 05:44:02;;;;;;;40.78;25.38;;;;;;;;;;13169316;22;20361;-83
2023/06/20 05:49:09;;;;;;;43.27;26.57;;;;;;;;;;13168939;22;20411;-83
2023/06/20 05:54:12;;;;;;;40.60;25.27;;;;;;;;;;13172890;22;20430;-82
2023/06/20 05:59:15;;;;;;;39.03;24.88;;;;;;;;;;13173156;22;20391;-83
2023/06/20 06:04:17;;;;;;;35.07;22.17;;;;;;;;;;13172818;22;20387;-83
2023/06/20 06:09:20;;;;;;;28.70;20.10;;;;;;;;;;13173294;22;20898;-84
2023/06/20 06:14:24;;;;;;;30.85;21.13;;;;;;;;;;13168002;22;20381;-83
2023/06/20 06:19:26;;;;;;;34.97;21.80;;;;;;;;;;13168932;22;20362;-83
2023/06/20 06:24:29;;;;;;;24.48;17.48;;;;;;;;;;13170405;22;20362;-83
2023/06/20 06:29:33;;;;;;;26.53;18.80;;;;;;;;;;13169122;22;20353;-83
2023/06/20 06:34:35;;;;;;;24.92;18.48;;;;;;;;;;13167801;22;20408;-82
2023/06/20 06:39:38;;;;;;;23.52;17.70;;;;;;;;;;13168111;22;20357;-82
2023/06/20 06:44:42;;;;;;;23.33;17.73;;;;;;;;;;13166497;22;20357;-84
2023/06/20 06:49:44;;;;;;;23.20;17.83;;;;;;;;;;13166528;22;20901;-84
2023/06/20 06:54:47;;;;;;;22.42;17.13;;;;;;;;;;13167541;22;20926;-84
2023/06/20 06:59:50;;;;;;;24.65;18.15;;;;;;;;;;13164294;22;20358;-83
2023/06/20 07:04:53;;;;;;;19.83;15.13;;;;;;;;;;13165476;22;20353;-79
2023/06/20 07:09:55;;;;;;;20.37;16.10;;;;;;;;;;13165623;22;20369;-84
2023/06/20 07:14:58;;;;;;;20.17;16.08;;;;;;;;;;13165579;22;20381;-84
2023/06/20 07:20:01;;;;;;;20.08;15.23;;;;;;;;;;13165303;22;20391;-83
2023/06/20 07:25:03;;;;;;;19.23;15.98;;;;;;;;;;13162828;22;20458;-84
2023/06/20 07:30:08;;;;;;;21.10;15.80;;;;;;;;;;13167993;22;20414;-84
2023/06/20 07:35:10;;;;;;;18.65;14.93;;;;;;;;;;13165506;22;20385;-83
2023/06/20 07:40:13;;;;;;;23.45;16.05;;;;;;;;;;13166159;22;20357;-83
2023/06/20 07:45:16;;;;;;;20.03;14.23;;;;;;;;;;13167027;22;20438;-82
2023/06/20 07:50:19;;;;;;;17.95;14.30;;;;;;;;;;13167027;22;20357;-83
2023/06/20 07:55:21;;;;;;;16.05;13.02;;;;;;;;;;13167111;22;20385;-83
2023/06/20 08:00:25;;;;;;;19.30;13.73;;;;;;;;;;13167879;22;20388;-83
2023/06/20 08:05:27;;;;;;;16.10;13.40;;;;;;;;;;13167339;22;20409;-83
2023/06/20 08:10:30;;;;;;;17.85;15.13;;;;;;;;;;13167218;22;20825;-83
2023/06/20 08:15:34;;;;;;;15.75;12.93;;;;;;;;;;13166982;22;20433;-83
2023/06/20 08:20:36;;;;;;;16.40;12.70;;;;;;;;;;13167276;22;20383;-83
2023/06/20 08:25:38;;;;;;;17.10;13.05;;;;;;;;;;13166702;22;20958;-83
2023/06/20 08:30:42;;;;;;;19.05;14.88;;;;;;;;;;13166967;22;20453;-83
2023/06/20 08:35:44;;;;;;;14.85;11.43;;;;;;;;;;13165712;22;20377;-83
2023/06/20 08:40:47;;;;;;;19.02;14.10;;;;;;;;;;13143011;22;20361;-84
2023/06/20 08:45:55;;;;;;;13.68;11.88;;;;;;;;;;13171199;22;20387;-84
2023/06/20 08:50:57;;;;;;;15.00;12.00;;;;;;;;;;13171681;22;20384;-83
2023/06/20 08:56:02;;;;;;;16.90;12.77;;;;;;;;;;13172282;22;20419;-83
2023/06/20 09:01:08;;;;;;;14.53;12.03;;;;;;;;;;13175224;22;20411;-83
2023/06/20 09:06:11;;;;;;;15.25;11.45;;;;;;;;;;13171666;22;20353;-83
2023/06/20 09:11:13;;;;;;;14.43;12.23;;;;;;;;;;13167476;22;20736;-82
2023/06/20 09:16:17;;;;;;;10.95;9.73;;;;;;;;;;13170554;22;20415;-80
2023/06/20 09:21:19;;;;;;;14.45;9.85;;;;;;;;;;13170055;22;20428;-82
2023/06/20 09:26:22;;;;;;;11.50;10.13;;;;;;;;;;13171288;22;20438;-81
2023/06/20 09:31:26;;;;;;;13.10;10.95;;;;;;;;;;13173894;22;20362;-82
2023/06/20 09:36:29;;;;;;;13.95;10.77;;;;;;;;;;13163897;22;20374;-81
2023/06/20 09:41:32;;;;;;;12.20;10.00;;;;;;;;;;13167337;22;20365;-81
2023/06/20 09:46:35;;;;;;;12.30;10.18;;;;;;;;;;13166576;22;20388;-81
2023/06/20 09:51:43;;;;;;;11.77;10.38;;;;;;;;;;13163007;22;20358;-81
2023/06/20 09:56:48;;;;;;;11.18;9.80;;;;;;;;;;13164910;22;20434;-80
2023/06/20 10:01:53;;;;;;;12.95;10.45;;;;;;;;;;13169594;22;20419;-80
2023/06/20 10:06:56;;;;;;;13.50;10.80;;;;;;;;;;13168228;22;20718;-81
2023/06/20 10:11:59;;;;;;;15.15;10.85;;;;;;;;;;13158923;22;20422;-80
2023/06/20 10:17:08;;;;;;;13.10;10.83;;;;;;;;;;13161602;22;20853;-80
2023/06/20 10:22:10;;;;;;;11.40;9.13;;;;;;;;;;13162316;22;20358;-80
2023/06/20 10:27:24;;;;;;;10.70;9.43;;;;;;;;;;13161515;22;20366;-80
2023/06/20 10:32:28;;;;;;;12.07;9.65;;;;;;;;;;13161994;22;20382;-81
2023/06/20 10:37:38;;;;;;;11.33;9.07;;;;;;;;;;13159696;22;20407;-81
2023/06/20 10:42:42;;;;;;;10.23;9.10;;;;;;;;;;13162506;22;20373;-82
2023/06/20 10:47:46;;;;;;;11.53;10.33;;;;;;;;;;13167567;22;20362;-81
2023/06/20 10:52:49;;;;;;;11.88;9.35;;;;;;;;;;13167686;22;20735;-81
2023/06/20 10:57:52;;;;;;;15.17;10.60;;;;;;;;;;13169752;22;20434;-80
2023/06/20 11:02:56;;;;;;;11.55;9.90;;;;;;;;;;13172758;22;20353;-81
2023/06/20 11:07:59;;;;;;;10.73;9.35;;;;;;;;;;13171504;22;20357;-80
2023/06/20 11:13:03;;;;;;;10.90;9.33;;;;;;;;;;13172677;22;20362;-80
2023/06/20 11:18:08;;;;;;;10.98;9.50;;;;;;;;;;13173548;22;20381;-80
2023/06/20 11:23:12;;;;;;;11.93;9.48;;;;;;;;;;13172513;22;20365;-80
2023/06/20 11:28:15;;;;;;;11.57;10.30;;;;;;;;;;13172117;22;20825;-80
2023/06/20 11:33:20;;;;;;;11.57;9.25;;;;;;;;;;13172821;22;20362;-80
2023/06/20 11:38:23;;;;;;;12.52;10.75;;;;;;;;;;13169916;22;20434;-80
2023/06/20 11:43:28;;;;;;;10.37;9.23;;;;;;;;;;13171523;22;20350;-80
2023/06/20 11:48:32;;;;;;;10.75;9.68;;;;;;;;;;13170953;22;20764;-80
2023/06/20 11:53:36;;;;;;;10.45;9.38;;;;;;;;;;13171220;22;20387;-80
2023/06/20 11:58:40;;;;;;;10.70;8.90;;;;;;;;;;13170252;22;20434;-81
2023/06/20 12:03:45;;;;;;;10.25;8.93;;;;;;;;;;13169898;22;20365;-80
2023/06/20 12:08:54;;;;;;;14.23;9.60;;;;;;;;;;13172046;22;20358;-82
2023/06/20 12:13:57;;;;;;;10.73;9.63;;;;;;;;;;13170157;22;20410;-82
2023/06/20 12:19:01;;;;;;;9.93;8.93;;;;;;;;;;13169627;22;20694;-81
2023/06/20 12:24:03;;;;;;;11.73;9.82;;;;;;;;;;13168162;22;20430;-82
2023/06/20 12:29:08;;;;;;;10.68;8.93;;;;;;;;;;13169811;22;20894;-83
2023/06/20 12:34:12;;;;;;;10.43;9.27;;;;;;;;;;13170133;22;20353;-83
2023/06/20 12:39:14;;;;;;;11.37;9.80;;;;;;;;;;13168593;22;20404;-83
2023/06/20 12:44:17;;;;;;;9.93;8.80;;;;;;;;;;13168572;22;20415;-81
2023/06/20 12:49:20;;;;;;;10.15;9.13;;;;;;;;;;13170997;22;20414;-80
2023/06/20 12:54:23;;;;;;;12.43;9.90;;;;;;;;;;13168963;22;20361;-81
2023/06/20 12:59:25;;;;;;;9.40;8.47;;;;;;;;;;13168433;22;20856;-81
2023/06/20 13:04:29;;;;;;;10.65;9.30;;;;;;;;;;13169304;22;20410;-80
2023/06/20 13:09:31;;;;;;;9.87;8.60;;;;;;;;;;13166912;22;20370;-80
2023/06/20 13:14:34;;;;;;;9.03;7.40;;;;;;;;;;13165952;22;20446;-80
2023/06/20 13:19:38;;;;;;;8.70;7.80;;;;;;;;;;13166194;22;20377;-80
2023/06/20 13:24:42;;;;;;;8.97;8.10;;;;;;;;;;13179176;22;20837;-80
2023/06/20 13:29:44;;;;;;;9.45;7.95;;;;;;;;;;13167173;22;20431;-79
2023/06/20 13:34:48;;;;;;;9.13;8.23;;;;;;;;;;13167111;22;20434;-79
2023/06/20 13:39:50;;;;;;;8.73;7.82;;;;;;;;;;13166845;22;20439;-79
2023/06/20 13:44:52;;;;;;;10.07;8.13;;;;;;;;;;13166026;22;20399;-80
2023/06/20 13:49:57;;;;;;;8.25;7.45;;;;;;;;;;13168295;22;20361;-79
2023/06/20 13:55:01;;;;;;;8.83;7.90;;;;;;;;;;13168651;22;20414;-80
2023/06/20 14:00:10;;;;;;;8.70;7.80;;;;;;;;;;13164600;22;20382;-79
2023/06/20 14:05:14;;;;;;;9.25;8.18;;;;;;;;;;13165660;22;20458;-80
2023/06/20 14:10:16;;;;;;;9.02;7.75;;;;;;;;;;13164833;22;20399;-82
2023/06/20 14:15:19;;;;;;;10.30;7.80;;;;;;;;;;13165165;22;20446;-81
2023/06/20 14:20:22;;;;;;;8.60;7.70;;;;;;;;;;13166482;22;20381;-80
2023/06/20 14:25:25;;;;;;;8.83;7.10;;;;;;;;;;13165889;22;20403;-79
2023/06/20 14:30:27;;;;;;;8.18;7.47;;;;;;;;;;13164205;22;20477;-80
2023/06/20 14:35:31;;;;;;;7.97;7.18;;;;;;;;;;13161804;22;20431;-79
2023/06/20 14:40:34;;;;;;;8.13;7.35;;;;;;;;;;13157469;22;20382;-80
2023/06/20 14:45:36;;;;;;;7.83;7.03;;;;;;;;;;13161257;22;20373;-80
2023/06/20 14:50:40;;;;;;;9.00;7.40;;;;;;;;;;13163883;22;20427;-80
2023/06/20 14:55:42;;;;;;;8.52;7.47;;;;;;;;;;13162553;22;20461;-80
2023/06/20 15:00:45;;;;;;;10.15;6.68;;;;;;;;;;13159931;22;20385;-80
2023/06/20 15:05:49;;;;;;;7.30;6.60;;;;;;;;;;13155263;22;20373;-80
2023/06/20 15:10:51;;;;;;;7.13;6.43;;;;;;;;;;13156755;22;20404;-80
2023/06/20 15:15:54;;;;;;;7.70;6.60;;;;;;;;;;13156280;22;20514;-80
2023/06/20 15:20:57;;;;;;;10.23;6.38;;;;;;;;;;13167748;22;20377;-82
2023/06/20 15:26:00;;;;;;;7.25;6.13;;;;;;;;;;13170392;22;20458;-82
2023/06/20 15:31:03;;;;;;;6.95;6.10;;;;;;;;;;13169337;22;20383;-82
2023/06/20 15:36:07;;;;;;;7.22;6.20;;;;;;;;;;13167390;22;20361;-81
2023/06/20 15:41:10;;;;;;;7.35;6.55;;;;;;;;;;13168506;22;20462;-82
2023/06/20 15:46:12;;;;;;;6.50;5.90;;;;;;;;;;13165357;22;20446;-81
2023/06/20 15:51:16;;;;;;;7.93;7.22;;;;;;;;;;13169705;22;20362;-82
2023/06/20 15:56:19;;;;;;;8.10;6.70;;;;;;;;;;13164124;22;20434;-82
2023/06/20 16:01:21;;;;;;;6.77;6.07;;;;;;;;;;13168843;22;20813;-81
2023/06/20 16:06:25;;;;;;;7.63;6.93;;;;;;;;;;13168153;22;20408;-82
2023/06/20 16:11:29;;;;;;;7.78;6.97;;;;;;;;;;13167117;22;20354;-82
2023/06/20 16:16:32;;;;;;;8.27;6.90;;;;;;;;;;13169265;22;20353;-82
2023/06/20 16:21:36;;;;;;;7.27;6.57;;;;;;;;;;13168109;22;20384;-82
2023/06/20 16:26:38;;;;;;;7.67;6.97;;;;;;;;;;13168786;22;20358;-82
2023/06/20 16:31:41;;;;;;;10.25;6.50;;;;;;;;;;13169816;22;20419;-82
2023/06/20 16:36:44;;;;;;;7.78;6.68;;;;;;;;;;13170634;22;20451;-82
2023/06/20 16:41:47;;;;;;;10.80;7.20;;;;;;;;;;13168643;22;20357;-81
2023/06/20 16:46:49;;;;;;;12.65;7.50;;;;;;;;;;13171468;22;20362;-82
2023/06/20 16:51:52;;;;;;;8.37;7.37;;;;;;;;;;13171871;22;20357;-81
2023/06/20 16:56:55;;;;;;;9.63;7.43;;;;;;;;;;13169960;22;20417;-86
2023/06/20 17:01:58;;;;;;;9.85;7.55;;;;;;;;;;13164756;22;20362;-81
2023/06/20 17:07:01;;;;;;;9.40;7.78;;;;;;;;;;13167973;22;20370;-85
2023/06/20 17:12:04;;;;;;;8.98;7.97;;;;;;;;;;13165624;22;20346;-81
2023/06/20 17:17:06;;;;;;;9.00;8.10;;;;;;;;;;13163403;22;20369;-81
2023/06/20 17:22:10;;;;;;;9.77;8.15;;;;;;;;;;13167418;22;20769;-81
2023/06/20 17:27:12;;;;;;;12.50;9.40;;;;;;;;;;13165462;22;20361;-81
2023/06/20 17:32:15;;;;;;;11.10;9.60;;;;;;;;;;13164732;22;20424;-80
2023/06/20 17:37:19;;;;;;;11.02;9.38;;;;;;;;;;13162758;22;20373;-80
2023/06/20 17:42:22;;;;;;;9.70;8.70;;;;;;;;;;13166496;22;20366;-80
2023/06/20 17:47:25;;;;;;;12.05;8.23;;;;;;;;;;13170013;22;20353;-81
2023/06/20 17:52:29;;;;;;;10.57;8.73;;;;;;;;;;13174915;22;20354;-80
2023/06/20 17:57:31;;;;;;;13.48;8.32;;;;;;;;;;13174183;22;20381;-81
2023/06/20 18:02:33;;;;;;;9.80;8.13;;;;;;;;;;13167203;22;20399;-81
2023/06/20 18:07:37;;;;;;;9.07;8.02;;;;;;;;;;13164992;22;20370;-80
2023/06/20 18:12:40;;;;;;;9.38;8.43;;;;;;;;;;13163811;22;20403;-81
2023/06/20 18:17:42;;;;;;;8.98;8.10;;;;;;;;;;13163342;22;21152;-80
2023/06/20 18:22:46;;;;;;;9.90;8.35;;;;;;;;;;13161949;22;20354;-80
2023/06/20 18:27:50;;;;;;;10.98;8.02;;;;;;;;;;13163990;22;20365;-81
2023/06/20 18:32:52;;;;;;;9.95;8.57;;;;;;;;;;13163002;22;20423;-81
2023/06/20 18:37:56;;;;;;;10.23;8.77;;;;;;;;;;13164182;22;20385;-80
2023/06/20 18:42:58;;;;;;;9.45;8.30;;;;;;;;;;13163643;22;20714;-81
2023/06/20 18:48:00;;;;;;;9.90;8.90;;;;;;;;;;13162521;22;20430;-81
2023/06/20 18:53:04;;;;;;;9.65;8.65;;;;;;;;;;13165602;22;20983;-81
2023/06/20 18:58:06;;;;;;;11.33;8.77;;;;;;;;;;13164769;22;20734;-79
2023/06/20 19:03:12;;;;;;;11.80;9.27;;;;;;;;;;13163504;22;20370;-80
2023/06/20 19:08:15;;;;;;;11.95;9.30;;;;;;;;;;13165350;22;20369;-80
2023/06/20 19:13:18;;;;;;;9.70;8.70;;;;;;;;;;13165776;22;20446;-80
2023/06/20 19:18:20;;;;;;;10.43;8.43;;;;;;;;;;13162862;22;20899;-81
2023/06/20 19:23:24;;;;;;;10.93;8.80;;;;;;;;;;13166057;22;20358;-80
2023/06/20 19:28:26;;;;;;;10.77;8.88;;;;;;;;;;13165239;22;20430;-80
2023/06/20 19:33:29;;;;;;;9.18;8.27;;;;;;;;;;13164001;22;20454;-80
2023/06/20 19:38:32;;;;;;;9.70;8.07;;;;;;;;;;13164064;22;20434;-80
2023/06/20 19:43:35;;;;;;;10.25;8.30;;;;;;;;;;13164264;22;20854;-80
2023/06/20 19:48:38;;;;;;;9.52;8.20;;;;;;;;;;13163707;22;20742;-81
2023/06/20 19:53:42;;;;;;;9.68;8.68;;;;;;;;;;13165055;22;20373;-81
2023/06/20 19:58:44;;;;;;;11.60;9.20;;;;;;;;;;13165158;22;21316;-80
2023/06/20 20:03:46;;;;;;;14.27;11.77;;;;;;;;;;13162895;22;20399;-80
2023/06/20 20:08:50;;;;;;;15.50;12.90;;;;;;;;;;13161910;22;20399;-79
2023/06/20 20:13:53;;;;;;;13.90;12.40;;;;;;;;;;13162196;22;20836;-79
2023/06/20 20:18:55;;;;;;;14.38;12.40;;;;;;;;;;13162453;22;21217;-79
2023/06/20 20:23:59;;;;;;;13.57;11.57;;;;;;;;;;13163936;22;20399;-79
2023/06/20 20:29:01;;;;;;;13.32;11.65;;;;;;;;;;13162479;22;20377;-79
2023/06/20 20:34:03;;;;;;;11.88;10.65;;;;;;;;;;13162208;22;20374;-79
2023/06/20 20:39:07;;;;;;;11.95;10.20;;;;;;;;;;13161791;22;20385;-79
2023/06/20 20:44:10;;;;;;;12.13;10.43;;;;;;;;;;13162381;22;20437;-79
2023/06/20 20:49:12;;;;;;;13.18;10.77;;;;;;;;;;13163074;22;20804;-79
2023/06/20 20:54:16;;;;;;;15.10;12.57;;;;;;;;;;13159076;22;20374;-79
2023/06/20 20:59:18;;;;;;;14.95;12.85;;;;;;;;;;13157327;22;20381;-79
2023/06/20 21:04:21;;;;;;;14.80;13.10;;;;;;;;;;13161586;22;20369;-79
2023/06/20 21:09:24;;;;;;;14.07;12.57;;;;;;;;;;13158504;22;20369;-78
2023/06/20 21:14:27;;;;;;;17.03;12.97;;;;;;;;;;13162013;22;20423;-79
2023/06/20 21:19:29;;;;;;;14.90;13.30;;;;;;;;;;13164011;22;20450;-79
2023/06/20 21:24:33;;;;;;;16.17;12.93;;;;;;;;;;13166817;22;20373;-79
2023/06/20 21:29:35;;;;;;;15.15;12.70;;;;;;;;;;13165206;22;20373;-80
2023/06/20 21:34:37;;;;;;;14.93;13.15;;;;;;;;;;13165630;22;20914;-80
2023/06/20 21:39:41;;;;;;;17.55;14.35;;;;;;;;;;13163063;22;20462;-79
2023/06/20 21:44:44;;;;;;;16.17;13.15;;;;;;;;;;13163943;22;20430;-79
2023/06/20 21:49:46;;;;;;;16.88;13.52;;;;;;;;;;13165990;22;20354;-79
2023/06/20 21:54:50;;;;;;;16.95;13.88;;;;;;;;;;13187418;22;20369;-79
2023/06/20 21:59:52;;;;;;;17.05;14.48;;;;;;;;;;13165308;22;20385;-79
2023/06/20 22:04:54;;;;;;;17.75;13.77;;;;;;;;;;13168018;22;20361;-79
2023/06/20 22:09:58;;;;;;;17.70;13.98;;;;;;;;;;13171785;22;20418;-79
2023/06/20 22:15:01;;;;;;;17.33;14.00;;;;;;;;;;13172400;22;20759;-79
2023/06/20 22:20:06;;;;;;;18.67;14.90;;;;;;;;;;13170291;22;20454;-79
2023/06/20 22:25:10;;;;;;;18.90;15.55;;;;;;;;;;13173426;22;20361;-79
2023/06/20 22:30:12;;;;;;;22.27;17.07;;;;;;;;;;13172799;22;20419;-79
2023/06/20 22:35:14;;;;;;;22.88;18.75;;;;;;;;;;13173321;22;20358;-79
2023/06/20 22:40:18;;;;;;;22.98;18.63;;;;;;;;;;13173429;22;20377;-79
2023/06/20 22:45:21;;;;;;;22.53;17.97;;;;;;;;;;13173482;22;20458;-79
2023/06/20 22:50:26;;;;;;;21.40;17.33;;;;;;;;;;13173216;22;20358;-79
2023/06/20 22:55:31;;;;;;;21.08;16.77;;;;;;;;;;13173304;22;20989;-79
2023/06/20 23:00:34;;;;;;;21.17;17.08;;;;;;;;;;13172970;22;20431;-79
2023/06/20 23:05:36;;;;;;;22.02;17.35;;;;;;;;;;13173861;22;20357;-79
2023/06/20 23:10:40;;;;;;;21.95;17.65;;;;;;;;;;13172895;22;20419;-79
2023/06/20 23:15:42;;;;;;;21.95;17.27;;;;;;;;;;13172752;22;20376;-79
2023/06/20 23:20:45;;;;;;;21.02;17.60;;;;;;;;;;13173211;22;20377;-79
2023/06/20 23:25:49;;;;;;;22.53;17.57;;;;;;;;;;13172026;22;20350;-79
2023/06/20 23:30:51;;;;;;;19.92;16.92;;;;;;;;;;13173008;22;20418;-79
2023/06/20 23:35:53;;;;;;;23.48;17.95;;;;;;;;;;13172576;22;20358;-79
2023/06/20 23:40:57;;;;;;;23.88;18.45;;;;;;;;;;13170416;22;20473;-79
2023/06/20 23:46:00;;;;;;;21.17;18.23;;;;;;;;;;13172059;22;20659;-79
2023/06/20 23:51:03;;;;;;;21.73;18.43;;;;;;;;;;13171488;22;20361;-79
2023/06/20 23:56:07;;;;;;;23.17;18.70;;;;;;;;;;13168458;22;20357;-79
